Gramma Lee T. Moran — WDA8564 — position and weather

sailwx.info

Track history (hours):
 
Tides and Currents Weather Stations Pressure Air Temp Water Temp Dewpoint Dewpoint Depression Visibility Wind Speed Wind Dir Waves Ship Positions

Gramma Lee T. Moran

Owner: Moran Towing Corporation, New Canaan, CT. More information available from US FCC via Universal Licensing System and Coast Guard Vessel Documentation Center.

Last reported at 2017-Oct-16 22:30 UTC. Time now 2017-Oct-16 22:41 UTC.
Position N 39°51' W 075°21'.

Length 30 m; draft 5 m.

Type: Tug. MMSI: 336855710.

Date/timePositionNaut miles runAvg speedWind from/ knotsBaromVisibWave heightAir tempDewpointWater temp
2017-Oct-16 22:30N 39°51' W 075°21'0 0.0
2017-Oct-16 22:00N 39°51' W 075°21'0 0.0
2017-Oct-16 21:30N 39°51' W 075°21'0 0.0
2017-Oct-16 21:00N 39°51' W 075°21'0 0.7
2017-Oct-16 20:30N 39°51' W 075°20'2 4.7
2017-Oct-16 20:01N 39°51' W 075°17'3 6.3
2017-Oct-16 19:31N 39°52' W 075°13'0 0.1
2017-Oct-16 19:01N 39°52' W 075°13'2 4.4
2017-Oct-16 18:30N 39°53' W 075°11'0 0.0
2017-Oct-16 18:00N 39°53' W 075°11'0 0.0
2017-Oct-16 17:30N 39°53' W 075°11'0 0.0
2017-Oct-16 17:00N 39°53' W 075°11'0 0.0
2017-Oct-16 16:30N 39°53' W 075°11'0 0.0
2017-Oct-16 16:00N 39°53' W 075°11'0 0.0
2017-Oct-16 15:30N 39°53' W 075°11'0 0.0
2017-Oct-16 15:00N 39°53' W 075°11'1 1.6
2017-Oct-16 14:30N 39°54' W 075°12'3 2.8
2017-Oct-16 13:30N 39°54' W 075°08'2 3.2
2017-Oct-16 13:00N 39°53' W 075°09'1 2.6
2017-Oct-16 12:30N 39°54' W 075°08'0 0.0
2017-Oct-16 12:00N 39°54' W 075°08'0 0.2
2017-Oct-16 11:30N 39°54' W 075°08'1 2.7
2017-Oct-16 11:00N 39°53' W 075°09'1 1.4
2017-Oct-16 10:30N 39°53' W 075°10'0 0.7
2017-Oct-16 10:01N 39°53' W 075°11'0 0.0
2017-Oct-16 09:30N 39°53' W 075°11'0 0.0
2017-Oct-16 09:00N 39°53' W 075°11'0 0.0
2017-Oct-16 08:30N 39°53' W 075°11'0 0.0
2017-Oct-16 08:00N 39°53' W 075°11'0 0.0
2017-Oct-16 07:30N 39°53' W 075°11'0 0.0
2017-Oct-16 07:00N 39°53' W 075°11'0 0.0
2017-Oct-16 06:30N 39°53' W 075°11'0 0.0
2017-Oct-16 06:00N 39°53' W 075°11'0 0.0
2017-Oct-16 05:30N 39°53' W 075°11'0 0.0
2017-Oct-16 05:00N 39°53' W 075°11'0 0.0
2017-Oct-16 04:30N 39°53' W 075°11'0 0.0
2017-Oct-16 04:00N 39°53' W 075°11'0 0.0
2017-Oct-16 03:31N 39°53' W 075°11'0 0.0
2017-Oct-16 03:00N 39°53' W 075°11'0 0.0
2017-Oct-16 02:30N 39°53' W 075°11'0 0.0
2017-Oct-16 02:00N 39°53' W 075°11'0 0.0
2017-Oct-16 01:30N 39°53' W 075°11'0 0.0
2017-Oct-16 01:00N 39°53' W 075°11'0 0.0
2017-Oct-16 00:30N 39°53' W 075°11'0 0.0
2017-Oct-16 00:00N 39°53' W 075°11'0 0.0
2017-Oct-15 23:30N 39°53' W 075°11'0 0.0
2017-Oct-15 23:00N 39°53' W 075°11'0 0.0
2017-Oct-15 22:30N 39°53' W 075°11'0 0.0
2017-Oct-15 22:00N 39°53' W 075°11'0 0.0
2017-Oct-15 21:30N 39°53' W 075°11'0 0.0
2017-Oct-15 21:00N 39°53' W 075°11'0 0.0
2017-Oct-15 20:30N 39°53' W 075°11'0 0.0
2017-Oct-15 20:00N 39°53' W 075°11'0 0.0
2017-Oct-15 19:30N 39°53' W 075°11'0 0.0
2017-Oct-15 19:00N 39°53' W 075°11'0 0.0
2017-Oct-15 18:30N 39°53' W 075°11'0 0.0
2017-Oct-15 18:00N 39°53' W 075°11'0 0.0
2017-Oct-15 17:30N 39°53' W 075°11'0 0.0
2017-Oct-15 17:00N 39°53' W 075°11'0 0.0
2017-Oct-15 16:30N 39°53' W 075°11'0 0.0
2017-Oct-15 16:00N 39°53' W 075°11'0 0.0
2017-Oct-15 15:30N 39°53' W 075°11'0 0.0
2017-Oct-15 15:00N 39°53' W 075°11'0 0.0
2017-Oct-15 14:00N 39°53' W 075°11'0 0.0
2017-Oct-15 13:30N 39°53' W 075°11'0 0.0
2017-Oct-15 13:00N 39°53' W 075°11'0 0.0
2017-Oct-15 12:30N 39°53' W 075°11'0 0.0
2017-Oct-15 12:00N 39°53' W 075°11'0 0.0
2017-Oct-15 11:30N 39°53' W 075°11'0 0.0
2017-Oct-15 11:00N 39°53' W 075°11'0 0.0
2017-Oct-15 10:30N 39°53' W 075°11'0 0.0
2017-Oct-15 10:00N 39°53' W 075°11'0 0.0
2017-Oct-15 09:30N 39°53' W 075°11'0 0.0
2017-Oct-15 09:00N 39°53' W 075°11'0 0.0
2017-Oct-15 08:30N 39°53' W 075°11'1 2.1
2017-Oct-15 08:00N 39°53' W 075°12'1 2.5
2017-Oct-15 07:30N 39°52' W 075°13'0 0.1
2017-Oct-15 07:00N 39°52' W 075°13'2 4.1
2017-Oct-15 06:30N 39°53' W 075°11'0 0.4
2017-Oct-15 06:00N 39°53' W 075°11'0 0.0
2017-Oct-15 05:30N 39°53' W 075°11'0 0.0
2017-Oct-15 05:01N 39°53' W 075°11'0 0.0
2017-Oct-15 04:30N 39°53' W 075°11'0 0.0
2017-Oct-15 04:01N 39°53' W 075°11'2 3.7
2017-Oct-15 03:30N 39°54' W 075°08'0 0.4
2017-Oct-15 03:00N 39°54' W 075°08'1 2.4
2017-Oct-15 02:30N 39°53' W 075°09'1 2.7
2017-Oct-15 02:01N 39°54' W 075°08'0 0.0
2017-Oct-15 01:30N 39°54' W 075°08'0 0.0
2017-Oct-15 01:00N 39°54' W 075°08'0 0.9
2017-Oct-15 00:30N 39°54' W 075°08'1 3.0
2017-Oct-15 00:00N 39°53' W 075°09'1 2.7
2017-Oct-14 23:31N 39°53' W 075°11'0 0.0
2017-Oct-14 23:01N 39°53' W 075°11'0 0.0
2017-Oct-14 22:31N 39°53' W 075°11'0 0.0
2017-Oct-14 22:00N 39°53' W 075°11'0 0.0
2017-Oct-14 21:31N 39°53' W 075°11'0 0.0
2017-Oct-14 21:00N 39°53' W 075°11'0 0.0
2017-Oct-14 20:30N 39°53' W 075°11'0 0.0
2017-Oct-14 20:00N 39°53' W 075°11'0 0.0
2017-Oct-14 19:30N 39°53' W 075°11'0 0.0
2017-Oct-14 19:00N 39°53' W 075°11'0 0.0
2017-Oct-14 18:30N 39°53' W 075°11'0 0.0
2017-Oct-14 18:00N 39°53' W 075°11'0 0.0
2017-Oct-14 17:30N 39°53' W 075°11'0 0.0
2017-Oct-14 17:00N 39°53' W 075°11'0 0.0
2017-Oct-14 16:30N 39°53' W 075°11'0 0.0
2017-Oct-14 16:01N 39°53' W 075°11'2 4.6
2017-Oct-14 15:30N 39°52' W 075°13'4 8.1
2017-Oct-14 15:00N 39°51' W 075°18'2 3.2
2017-Oct-14 14:30N 39°51' W 075°20'1 1.1
2017-Oct-14 14:00N 39°51' W 075°21'2 3.6
2017-Oct-14 13:30N 39°49' W 075°23'2 4.6
2017-Oct-14 13:00N 39°51' W 075°20'0 0.0
2017-Oct-14 12:30N 39°51' W 075°20'0 0.0
2017-Oct-14 12:00N 39°51' W 075°20'0 0.0
2017-Oct-14 11:30N 39°51' W 075°20'0 0.0
2017-Oct-14 11:00N 39°51' W 075°20'0 0.0
2017-Oct-14 10:30N 39°51' W 075°20'0 0.0
2017-Oct-14 10:00N 39°51' W 075°20'0 0.0
2017-Oct-14 09:30N 39°51' W 075°20'0 0.0
2017-Oct-14 09:01N 39°51' W 075°20'0 0.0
2017-Oct-14 08:30N 39°51' W 075°20'0 0.0
2017-Oct-14 08:01N 39°51' W 075°20'0 0.0
2017-Oct-14 07:30N 39°51' W 075°20'0 0.0
2017-Oct-14 07:00N 39°51' W 075°20'0 0.0
2017-Oct-14 06:30N 39°51' W 075°20'0 0.0
2017-Oct-14 06:00N 39°51' W 075°20'0 0.0
2017-Oct-14 05:30N 39°51' W 075°20'0 0.0
2017-Oct-14 05:00N 39°51' W 075°20'0 0.0
2017-Oct-14 04:30N 39°51' W 075°20'611.0
2017-Oct-14 04:00N 39°52' W 075°13'0 0.5
2017-Oct-14 03:30N 39°52' W 075°13'0 0.0
2017-Oct-14 02:31N 39°52' W 075°13'0 0.4
2017-Oct-14 02:30N 39°52' W 075°13'0 0.2
2017-Oct-14 02:00N 39°52' W 075°13'2 3.1
2017-Oct-14 01:28N 39°51' W 075°15'0 0.3
2017-Oct-14 01:01N 39°51' W 075°15'4 7.3
2017-Oct-14 00:30N 39°53' W 075°11'0 0.5
2017-Oct-14 00:00N 39°53' W 075°11'0 0.0
2017-Oct-13 23:30N 39°53' W 075°11'0 0.0
2017-Oct-13 23:00N 39°53' W 075°11'0 0.0
2017-Oct-13 22:30N 39°53' W 075°11'0 0.0
2017-Oct-13 22:01N 39°53' W 075°11'0 0.0
2017-Oct-13 21:30N 39°53' W 075°11'0 0.0
2017-Oct-13 21:01N 39°53' W 075°11'2 4.2
2017-Oct-13 20:30N 39°54' W 075°08'0 0.4
2017-Oct-13 20:00N 39°54' W 075°08'0 0.6
2017-Oct-13 19:30N 39°54' W 075°08'0 0.0
2017-Oct-13 19:00N 39°54' W 075°08'0 0.0
2017-Oct-13 18:30N 39°54' W 075°08'0 0.0
2017-Oct-13 18:00N 39°54' W 075°08'0 0.0
2017-Oct-13 17:30N 39°54' W 075°08'0 0.0
2017-Oct-13 17:00N 39°54' W 075°08'0 0.0
2017-Oct-13 16:30N 39°54' W 075°08'0 0.0
2017-Oct-13 16:00N 39°54' W 075°08'0 0.0
2017-Oct-13 15:31N 39°54' W 075°08'0 0.0
2017-Oct-13 15:01N 39°54' W 075°08'0 0.0
2017-Oct-13 14:30N 39°54' W 075°08'1 2.4
2017-Oct-13 14:00N 39°55' W 075°08'4 7.7
2017-Oct-13 13:30N 39°59' W 075°06'0 0.2
2017-Oct-13 13:00N 39°58' W 075°06'2 3.6
2017-Oct-13 12:31N 39°58' W 075°08'3 6.6
2017-Oct-13 12:00N 39°54' W 075°08'1 1.2
2017-Oct-13 11:30N 39°54' W 075°08'0 0.0
2017-Oct-13 11:00N 39°54' W 075°08'0 0.0
2017-Oct-13 10:30N 39°54' W 075°08'0 0.0
2017-Oct-13 10:00N 39°54' W 075°08'0 0.0
2017-Oct-13 09:31N 39°54' W 075°08'0 0.0
2017-Oct-13 09:01N 39°54' W 075°08'0 0.0
2017-Oct-13 08:30N 39°54' W 075°08'0 0.0
2017-Oct-13 08:00N 39°54' W 075°08'0 0.0
2017-Oct-13 07:30N 39°54' W 075°08'0 0.0
2017-Oct-13 07:00N 39°54' W 075°08'0 0.0
2017-Oct-13 06:30N 39°54' W 075°08'0 0.0
2017-Oct-13 06:00N 39°54' W 075°08'0 0.0
2017-Oct-13 05:31N 39°54' W 075°08'0 0.0
2017-Oct-13 05:00N 39°54' W 075°08'0 0.0
2017-Oct-13 04:30N 39°54' W 075°08'0 0.0
2017-Oct-13 04:00N 39°54' W 075°08'1 2.1
2017-Oct-13 03:30N 39°53' W 075°09'1 1.3
2017-Oct-13 03:00N 39°53' W 075°10'1 1.9
2017-Oct-13 02:30N 39°53' W 075°09'1 2.0
2017-Oct-13 02:00N 39°54' W 075°08'1 1.2
2017-Oct-13 01:30N 39°53' W 075°08'2 3.7
2017-Oct-13 01:00N 39°53' W 075°11'2 3.9
2017-Oct-13 00:30N 39°54' W 075°08'2 3.9
2017-Oct-13 00:00N 39°53' W 075°11'0 0.0
2017-Oct-12 23:30N 39°53' W 075°11'2 3.1
2017-Oct-12 23:00N 39°52' W 075°12'510.0
2017-Oct-12 22:30N 39°51' W 075°19'510.2
2017-Oct-12 22:00N 39°49' W 075°24'510.0
2017-Oct-12 21:30N 39°45' W 075°29'3 5.1
2017-Oct-12 21:00N 39°43' W 075°31'1 1.8
2017-Oct-12 20:30N 39°44' W 075°30'4 7.7
2017-Oct-12 20:00N 39°47' W 075°28'4 7.5
2017-Oct-12 19:31N 39°49' W 075°24'4 7.6
2017-Oct-12 19:00N 39°51' W 075°19'4 8.2
2017-Oct-12 18:30N 39°51' W 075°14'3 5.5
2017-Oct-12 18:01N 39°54' W 075°12'1 2.4
2017-Oct-12 17:30N 39°53' W 075°11'0 0.0
2017-Oct-12 17:00N 39°53' W 075°11'0 0.0
2017-Oct-12 16:31N 39°53' W 075°11'0 0.0
2017-Oct-12 16:00N 39°53' W 075°11'0 0.0
2017-Oct-12 15:30N 39°53' W 075°11'0 0.0
2017-Oct-12 15:00N 39°53' W 075°11'0 0.0
2017-Oct-12 14:30N 39°53' W 075°11'0 0.0
2017-Oct-12 14:00N 39°53' W 075°11'0 0.0
2017-Oct-12 13:30N 39°53' W 075°11'0 0.0
2017-Oct-12 13:00N 39°53' W 075°11'0 0.0
2017-Oct-12 12:31N 39°53' W 075°11'0 0.0
2017-Oct-12 12:00N 39°53' W 075°11'0 0.0
2017-Oct-12 11:31N 39°53' W 075°11'0 0.0
2017-Oct-12 11:00N 39°53' W 075°11'0 0.0
2017-Oct-12 10:30N 39°53' W 075°11'0 0.0
2017-Oct-12 10:00N 39°53' W 075°11'0 0.0
2017-Oct-12 09:30N 39°53' W 075°11'2 3.7
2017-Oct-12 09:00N 39°54' W 075°08'2 5.0
2017-Oct-12 08:30N 39°56' W 075°08'0 0.4
2017-Oct-12 08:00N 39°56' W 075°08'0 0.7
2017-Oct-12 07:31N 39°56' W 075°08'0 0.0
2017-Oct-12 07:00N 39°56' W 075°08'0 0.0
2017-Oct-12 06:31N 39°56' W 075°08'0 0.0
2017-Oct-12 06:00N 39°56' W 075°08'0 0.0
2017-Oct-12 05:30N 39°56' W 075°08'0 0.0
2017-Oct-12 05:00N 39°56' W 075°08'0 0.0
2017-Oct-12 04:31N 39°56' W 075°08'0 0.0
2017-Oct-12 04:01N 39°56' W 075°08'0 0.0
2017-Oct-12 03:30N 39°56' W 075°08'0 0.5
2017-Oct-12 03:01N 39°56' W 075°08'2 4.4
2017-Oct-12 02:31N 39°58' W 075°07'0 0.1
2017-Oct-12 02:01N 39°58' W 075°07'1 2.5
2017-Oct-12 01:31N 39°57' W 075°08'3 6.6
2017-Oct-12 01:01N 39°54' W 075°08'0 0.4
2017-Oct-12 00:30N 39°54' W 075°08'0 0.0
2017-Oct-12 00:01N 39°54' W 075°08'2 3.9
2017-Oct-11 23:30N 39°53' W 075°10'0 0.1
2017-Oct-11 23:00N 39°53' W 075°10'0 0.0
2017-Oct-11 22:30N 39°53' W 075°10'0 0.5
2017-Oct-11 22:01N 39°53' W 075°10'1 2.3
2017-Oct-11 21:30N 39°53' W 075°11'1 2.1
2017-Oct-11 21:00N 39°53' W 075°10'0 0.9
2017-Oct-11 20:30N 39°53' W 075°11'0 0.0
2017-Oct-11 20:01N 39°53' W 075°11'0 0.0
2017-Oct-11 19:30N 39°53' W 075°11'0 0.0
2017-Oct-11 19:01N 39°53' W 075°11'0 0.0
2017-Oct-11 18:30N 39°53' W 075°11'0 0.0
2017-Oct-11 18:00N 39°53' W 075°11'0 0.0
2017-Oct-11 17:30N 39°53' W 075°11'0 0.9
2017-Oct-11 17:00N 39°54' W 075°11'0 0.0
2017-Oct-11 00:00N 39°53' W 075°11'0 0.0
2017-Oct-10 23:30N 39°53' W 075°11'0 0.0
2017-Oct-10 23:00N 39°53' W 075°11'0 0.0
2017-Oct-10 22:30N 39°53' W 075°11'0 0.0
2017-Oct-10 22:01N 39°53' W 075°11'0 0.0
2017-Oct-10 21:30N 39°53' W 075°11'0 0.0
2017-Oct-10 21:01N 39°53' W 075°11'0 0.0
2017-Oct-10 20:30N 39°53' W 075°11'0 0.0
2017-Oct-10 20:00N 39°53' W 075°11'0 0.0
2017-Oct-10 19:31N 39°53' W 075°11'0 0.0
2017-Oct-10 19:00N 39°53' W 075°11'0 0.0
2017-Oct-10 18:30N 39°53' W 075°11'0 0.0
2017-Oct-10 18:00N 39°53' W 075°11'0 0.0
2017-Oct-10 17:30N 39°53' W 075°11'0 0.0
2017-Oct-10 17:00N 39°53' W 075°11'0 0.0
2017-Oct-10 16:31N 39°53' W 075°11'0 0.0
2017-Oct-10 16:00N 39°53' W 075°11'0 0.0
2017-Oct-10 15:30N 39°53' W 075°11'0 0.5
2017-Oct-10 15:00N 39°53' W 075°10'1 1.0
2017-Oct-10 14:00N 39°53' W 075°12'0 0.0
2017-Oct-10 13:30N 39°53' W 075°12'0 0.0
2017-Oct-10 13:00N 39°53' W 075°12'0 0.0
2017-Oct-10 12:30N 39°53' W 075°12'0 0.0
2017-Oct-10 12:00N 39°53' W 075°12'1 1.6
2017-Oct-10 11:30N 39°53' W 075°11'0 0.0
2017-Oct-10 11:00N 39°53' W 075°11'0 0.0
2017-Oct-10 10:30N 39°53' W 075°11'0 0.0
2017-Oct-10 10:00N 39°53' W 075°11'0 0.0
2017-Oct-10 09:31N 39°53' W 075°11'0 0.0
2017-Oct-10 09:00N 39°53' W 075°11'0 0.0
2017-Oct-10 08:30N 39°53' W 075°11'2 4.3
2017-Oct-10 08:00N 39°54' W 075°08'2 4.1
2017-Oct-10 07:30N 39°56' W 075°08'0 0.5
2017-Oct-10 07:01N 39°56' W 075°08'2 3.1
2017-Oct-10 06:31N 39°54' W 075°08'2 3.7
2017-Oct-10 06:01N 39°56' W 075°08'0 0.0
2017-Oct-10 05:31N 39°56' W 075°08'0 0.0
2017-Oct-10 05:01N 39°56' W 075°08'0 0.0
2017-Oct-10 04:31N 39°56' W 075°08'0 0.0
2017-Oct-10 04:01N 39°56' W 075°08'0 0.0
2017-Oct-10 03:31N 39°56' W 075°08'0 0.0
2017-Oct-10 03:01N 39°56' W 075°08'0 0.0
2017-Oct-10 02:31N 39°56' W 075°08'0 0.0
2017-Oct-10 02:00N 39°56' W 075°08'0 0.0
2017-Oct-10 01:30N 39°56' W 075°08'1 1.0
2017-Oct-10 01:00N 39°56' W 075°08'1 2.9
2017-Oct-10 00:30N 39°54' W 075°08'0 0.1
2017-Oct-10 00:00N 39°54' W 075°08'0 0.3
2017-Oct-09 23:30N 39°54' W 075°08'0 0.9
2017-Oct-09 23:00N 39°54' W 075°08'2 3.9
2017-Oct-09 22:30N 39°53' W 075°10'2 3.9
2017-Oct-09 22:00N 39°54' W 075°08'1 2.6
2017-Oct-09 21:30N 39°53' W 075°09'1 2.8
2017-Oct-09 21:00N 39°53' W 075°11'0 0.0
2017-Oct-09 20:30N 39°53' W 075°11'0 0.0
2017-Oct-09 20:00N 39°53' W 075°11'0 0.0
2017-Oct-09 19:30N 39°53' W 075°11'0 0.0
2017-Oct-09 19:00N 39°53' W 075°11'0 0.0
2017-Oct-09 18:30N 39°53' W 075°11'0 0.0
2017-Oct-09 18:00N 39°53' W 075°11'0 0.0
2017-Oct-09 17:30N 39°53' W 075°11'1 1.6
2017-Oct-09 17:00N 39°54' W 075°12'0 0.0
2017-Oct-09 16:31N 39°54' W 075°12'1 1.4
2017-Oct-09 16:00N 39°54' W 075°12'0 0.7
2017-Oct-09 15:30N 39°54' W 075°12'1 1.9
2017-Oct-09 15:01N 39°53' W 075°12'1 2.4
2017-Oct-09 14:31N 39°53' W 075°11'0 0.0
2017-Oct-09 14:00N 39°53' W 075°11'1 1.2
2017-Oct-09 13:30N 39°53' W 075°10'3 5.3
2017-Oct-09 13:01N 39°55' W 075°08'0 0.1
2017-Oct-09 12:31N 39°55' W 075°08'1 1.2
2017-Oct-09 12:00N 39°55' W 075°08'1 1.1
2017-Oct-09 11:30N 39°54' W 075°08'1 1.3
2017-Oct-09 11:00N 39°53' W 075°08'1 1.1
2017-Oct-09 10:30N 39°53' W 075°09'1 1.7
2017-Oct-09 10:00N 39°54' W 075°08'0 0.3
2017-Oct-09 09:31N 39°54' W 075°08'0 0.1
2017-Oct-09 09:01N 39°54' W 075°08'0 0.0
2017-Oct-09 08:30N 39°54' W 075°08'0 0.0
2017-Oct-09 08:00N 39°54' W 075°08'0 0.0
2017-Oct-09 07:30N 39°54' W 075°08'0 0.0
2017-Oct-09 07:00N 39°54' W 075°08'0 0.0
2017-Oct-09 06:30N 39°54' W 075°08'0 0.0
2017-Oct-09 06:00N 39°54' W 075°08'0 0.0
2017-Oct-09 05:30N 39°54' W 075°08'0 0.0
2017-Oct-09 05:00N 39°54' W 075°08'0 0.0
2017-Oct-09 04:31N 39°54' W 075°08'0 0.0
2017-Oct-09 04:00N 39°54' W 075°08'0 0.0
2017-Oct-09 03:30N 39°54' W 075°08'0 0.0
2017-Oct-09 03:00N 39°54' W 075°08'0 0.0
2017-Oct-09 02:30N 39°54' W 075°08'0 0.0
2017-Oct-09 02:01N 39°54' W 075°08'0 0.0
2017-Oct-09 01:31N 39°54' W 075°08'0 0.0
2017-Oct-09 01:00N 39°54' W 075°08'0 0.0
2017-Oct-09 00:30N 39°54' W 075°08'0 0.0
2017-Oct-09 00:00N 39°54' W 075°08'0 0.1
2017-Oct-08 23:30N 39°54' W 075°08'0 0.2
2017-Oct-08 23:00N 39°54' W 075°08'0 0.2
2017-Oct-08 22:31N 39°54' W 075°08'0 0.0
2017-Oct-08 22:01N 39°54' W 075°08'0 0.0
2017-Oct-08 21:31N 39°54' W 075°08'0 0.0
2017-Oct-08 21:00N 39°54' W 075°08'0 0.0
2017-Oct-08 20:31N 39°54' W 075°08'0 0.5
2017-Oct-08 20:00N 39°54' W 075°08'4 7.9
2017-Oct-08 19:30N 39°52' W 075°13'0 0.1
2017-Oct-08 19:01N 39°52' W 075°13'2 3.9
2017-Oct-08 18:31N 39°53' W 075°11'2 4.0
2017-Oct-08 18:00N 39°54' W 075°08'0 0.0
2017-Oct-08 17:30N 39°54' W 075°08'0 0.0
2017-Oct-08 17:00N 39°54' W 075°08'0 0.0
2017-Oct-08 16:31N 39°54' W 075°08'0 0.0
2017-Oct-08 16:01N 39°54' W 075°08'0 0.2
2017-Oct-08 15:31N 39°54' W 075°08'0 0.9
2017-Oct-08 15:00N 39°53' W 075°08'2 4.2
2017-Oct-08 14:31N 39°53' W 075°11'0 0.9
2017-Oct-08 14:01N 39°53' W 075°11'0 0.0
2017-Oct-08 13:30N 39°53' W 075°11'0 0.0
2017-Oct-08 13:01N 39°53' W 075°11'0 0.0
2017-Oct-08 12:30N 39°53' W 075°11'0 0.0
2017-Oct-08 12:00N 39°53' W 075°11'2 4.4
2017-Oct-08 11:30N 39°52' W 075°13'5 9.2
2017-Oct-08 11:00N 39°51' W 075°19'5 9.8
2017-Oct-08 10:30N 39°49' W 075°24'510.2
2017-Oct-08 10:00N 39°45' W 075°29'510.9
2017-Oct-08 09:30N 39°40' W 075°32'5 9.8
2017-Oct-08 09:00N 39°35' W 075°34'1 2.6
2017-Oct-08 08:30N 39°35' W 075°35'0 0.0
2017-Oct-08 08:00N 39°35' W 075°35'0 0.3
2017-Oct-08 07:30N 39°35' W 075°35'2 4.3
2017-Oct-08 07:00N 39°34' W 075°33'2 3.7
2017-Oct-08 06:30N 39°36' W 075°34'1 2.1
2017-Oct-08 06:00N 39°35' W 075°35'0 0.8
2017-Oct-08 05:30N 39°35' W 075°35'0 0.0
2017-Oct-08 05:00N 39°35' W 075°35'2 3.9
2017-Oct-08 04:30N 39°34' W 075°33'2 4.5
2017-Oct-08 04:00N 39°35' W 075°36'0 0.1
2017-Oct-08 03:30N 39°35' W 075°36'0 0.6
2017-Oct-08 03:00N 39°35' W 075°35'0 0.0
2017-Oct-08 02:30N 39°35' W 075°35'0 0.0
2017-Oct-08 02:00N 39°35' W 075°35'0 0.0
2017-Oct-08 01:30N 39°35' W 075°35'0 0.0
2017-Oct-08 01:00N 39°35' W 075°35'0 0.0
2017-Oct-08 00:30N 39°35' W 075°35'0 0.0
2017-Oct-08 00:00N 39°35' W 075°35'0 0.0
2017-Oct-07 23:30N 39°35' W 075°35'0 0.0
2017-Oct-07 23:00N 39°35' W 075°35'0 0.0
2017-Oct-07 22:30N 39°35' W 075°35'0 0.0
2017-Oct-07 22:00N 39°35' W 075°35'0 0.0
2017-Oct-07 21:30N 39°35' W 075°35'0 0.0
2017-Oct-07 21:00N 39°35' W 075°35'0 0.0
2017-Oct-07 20:30N 39°35' W 075°35'0 0.0
2017-Oct-07 20:00N 39°35' W 075°35'0 0.0
2017-Oct-07 19:30N 39°35' W 075°35'0 0.0
2017-Oct-07 19:00N 39°35' W 075°35'2 4.1
2017-Oct-07 18:30N 39°34' W 075°33'1 1.7
2017-Oct-07 18:00N 39°34' W 075°34'1 2.6
2017-Oct-07 17:30N 39°35' W 075°35'0 0.1
2017-Oct-07 17:00N 39°35' W 075°35'0 0.1
2017-Oct-07 16:30N 39°35' W 075°36'1 2.7
2017-Oct-07 16:00N 39°36' W 075°34'4 7.7
2017-Oct-07 15:30N 39°39' W 075°33'4 8.9
2017-Oct-07 15:00N 39°43' W 075°30'510.9
2017-Oct-07 14:30N 39°48' W 075°26'5 9.3
2017-Oct-07 14:00N 39°50' W 075°21'1 1.4
2017-Oct-07 13:30N 39°51' W 075°21'0 0.0
2017-Oct-07 13:00N 39°51' W 075°21'0 0.0
2017-Oct-07 12:30N 39°51' W 075°21'0 0.0
2017-Oct-07 12:01N 39°51' W 075°21'0 0.0
2017-Oct-07 11:31N 39°51' W 075°21'0 0.0
2017-Oct-07 11:01N 39°51' W 075°21'0 0.0
2017-Oct-07 10:31N 39°51' W 075°21'3 6.7
2017-Oct-07 10:01N 39°51' W 075°16'0 0.3
2017-Oct-07 09:30N 39°51' W 075°16'0 0.0
2017-Oct-07 09:01N 39°51' W 075°16'0 0.2
2017-Oct-07 08:31N 39°51' W 075°16'1 2.4
2017-Oct-07 08:01N 39°51' W 075°18'3 6.8
2017-Oct-07 07:31N 39°52' W 075°13'4 8.6
2017-Oct-07 07:01N 39°53' W 075°08'1 1.4
2017-Oct-07 06:31N 39°54' W 075°08'0 0.5
2017-Oct-07 06:01N 39°54' W 075°08'2 3.9
2017-Oct-07 05:30N 39°53' W 075°11'2 4.6
2017-Oct-07 05:01N 39°52' W 075°13'0 0.0
2017-Oct-07 04:31N 39°52' W 075°13'0 0.0
2017-Oct-07 04:00N 39°52' W 075°13'0 0.0
2017-Oct-07 03:30N 39°52' W 075°13'0 0.4
2017-Oct-07 03:01N 39°52' W 075°13'1 2.3
2017-Oct-07 02:31N 39°51' W 075°14'2 4.7
2017-Oct-07 02:00N 39°53' W 075°12'1 2.4
2017-Oct-07 01:31N 39°53' W 075°11'1 2.4
2017-Oct-07 01:01N 39°53' W 075°09'1 2.9
2017-Oct-07 00:30N 39°54' W 075°08'2 4.0
2017-Oct-07 00:01N 39°53' W 075°10'1 1.1
2017-Oct-06 23:30N 39°53' W 075°11'2 4.2
2017-Oct-06 23:00N 39°54' W 075°08'  
Track history (hours):
 
Tides and Currents Weather Stations Pressure Air Temp Water Temp Dewpoint Dewpoint Depression Visibility Wind Speed Wind Dir Waves Ship Positions

Gramma Lee T. Moran

Owner: Moran Towing Corporation, New Canaan, CT. More information available from US FCC via Universal Licensing System and Coast Guard Vessel Documentation Center.

Last reported at 2017-Oct-16 22:30 UTC. Time now 2017-Oct-16 22:41 UTC.
Position N 39°51' W 075°21'.

Length 30 m; draft 5 m.

Type: Tug. MMSI: 336855710.

Date/timePositionNaut miles runAvg speedWind from/ knotsBaromVisibWave heightAir tempDewpointWater temp
2017-Oct-16 22:30N 39°51' W 075°21'0 0.0
2017-Oct-16 22:00N 39°51' W 075°21'0 0.0
2017-Oct-16 21:30N 39°51' W 075°21'0 0.0
2017-Oct-16 21:00N 39°51' W 075°21'0 0.7
2017-Oct-16 20:30N 39°51' W 075°20'2 4.7
2017-Oct-16 20:01N 39°51' W 075°17'3 6.3
2017-Oct-16 19:31N 39°52' W 075°13'0 0.1
2017-Oct-16 19:01N 39°52' W 075°13'2 4.4
2017-Oct-16 18:30N 39°53' W 075°11'0 0.0
2017-Oct-16 18:00N 39°53' W 075°11'0 0.0
2017-Oct-16 17:30N 39°53' W 075°11'0 0.0
2017-Oct-16 17:00N 39°53' W 075°11'0 0.0
2017-Oct-16 16:30N 39°53' W 075°11'0 0.0
2017-Oct-16 16:00N 39°53' W 075°11'0 0.0
2017-Oct-16 15:30N 39°53' W 075°11'0 0.0
2017-Oct-16 15:00N 39°53' W 075°11'1 1.6
2017-Oct-16 14:30N 39°54' W 075°12'3 2.8
2017-Oct-16 13:30N 39°54' W 075°08'2 3.2
2017-Oct-16 13:00N 39°53' W 075°09'1 2.6
2017-Oct-16 12:30N 39°54' W 075°08'0 0.0
2017-Oct-16 12:00N 39°54' W 075°08'0 0.2
2017-Oct-16 11:30N 39°54' W 075°08'1 2.7
2017-Oct-16 11:00N 39°53' W 075°09'1 1.4
2017-Oct-16 10:30N 39°53' W 075°10'0 0.7
2017-Oct-16 10:01N 39°53' W 075°11'0 0.0
2017-Oct-16 09:30N 39°53' W 075°11'0 0.0
2017-Oct-16 09:00N 39°53' W 075°11'0 0.0
2017-Oct-16 08:30N 39°53' W 075°11'0 0.0
2017-Oct-16 08:00N 39°53' W 075°11'0 0.0
2017-Oct-16 07:30N 39°53' W 075°11'0 0.0
2017-Oct-16 07:00N 39°53' W 075°11'0 0.0
2017-Oct-16 06:30N 39°53' W 075°11'0 0.0
2017-Oct-16 06:00N 39°53' W 075°11'0 0.0
2017-Oct-16 05:30N 39°53' W 075°11'0 0.0
2017-Oct-16 05:00N 39°53' W 075°11'0 0.0
2017-Oct-16 04:30N 39°53' W 075°11'0 0.0
2017-Oct-16 04:00N 39°53' W 075°11'0 0.0
2017-Oct-16 03:31N 39°53' W 075°11'0 0.0
2017-Oct-16 03:00N 39°53' W 075°11'0 0.0
2017-Oct-16 02:30N 39°53' W 075°11'0 0.0
2017-Oct-16 02:00N 39°53' W 075°11'0 0.0
2017-Oct-16 01:30N 39°53' W 075°11'0 0.0
2017-Oct-16 01:00N 39°53' W 075°11'0 0.0
2017-Oct-16 00:30N 39°53' W 075°11'0 0.0
2017-Oct-16 00:00N 39°53' W 075°11'0 0.0
2017-Oct-15 23:30N 39°53' W 075°11'0 0.0
2017-Oct-15 23:00N 39°53' W 075°11'0 0.0
2017-Oct-15 22:30N 39°53' W 075°11'0 0.0
2017-Oct-15 22:00N 39°53' W 075°11'0 0.0
2017-Oct-15 21:30N 39°53' W 075°11'0 0.0
2017-Oct-15 21:00N 39°53' W 075°11'0 0.0
2017-Oct-15 20:30N 39°53' W 075°11'0 0.0
2017-Oct-15 20:00N 39°53' W 075°11'0 0.0
2017-Oct-15 19:30N 39°53' W 075°11'0 0.0
2017-Oct-15 19:00N 39°53' W 075°11'0 0.0
2017-Oct-15 18:30N 39°53' W 075°11'0 0.0
2017-Oct-15 18:00N 39°53' W 075°11'0 0.0
2017-Oct-15 17:30N 39°53' W 075°11'0 0.0
2017-Oct-15 17:00N 39°53' W 075°11'0 0.0
2017-Oct-15 16:30N 39°53' W 075°11'0 0.0
2017-Oct-15 16:00N 39°53' W 075°11'0 0.0
2017-Oct-15 15:30N 39°53' W 075°11'0 0.0
2017-Oct-15 15:00N 39°53' W 075°11'0 0.0
2017-Oct-15 14:00N 39°53' W 075°11'0 0.0
2017-Oct-15 13:30N 39°53' W 075°11'0 0.0
2017-Oct-15 13:00N 39°53' W 075°11'0 0.0
2017-Oct-15 12:30N 39°53' W 075°11'0 0.0
2017-Oct-15 12:00N 39°53' W 075°11'0 0.0
2017-Oct-15 11:30N 39°53' W 075°11'0 0.0
2017-Oct-15 11:00N 39°53' W 075°11'0 0.0
2017-Oct-15 10:30N 39°53' W 075°11'0 0.0
2017-Oct-15 10:00N 39°53' W 075°11'0 0.0
2017-Oct-15 09:30N 39°53' W 075°11'0 0.0
2017-Oct-15 09:00N 39°53' W 075°11'0 0.0
2017-Oct-15 08:30N 39°53' W 075°11'1 2.1
2017-Oct-15 08:00N 39°53' W 075°12'1 2.5
2017-Oct-15 07:30N 39°52' W 075°13'0 0.1
2017-Oct-15 07:00N 39°52' W 075°13'2 4.1
2017-Oct-15 06:30N 39°53' W 075°11'0 0.4
2017-Oct-15 06:00N 39°53' W 075°11'0 0.0
2017-Oct-15 05:30N 39°53' W 075°11'0 0.0
2017-Oct-15 05:01N 39°53' W 075°11'0 0.0
2017-Oct-15 04:30N 39°53' W 075°11'0 0.0
2017-Oct-15 04:01N 39°53' W 075°11'2 3.7
2017-Oct-15 03:30N 39°54' W 075°08'0 0.4
2017-Oct-15 03:00N 39°54' W 075°08'1 2.4
2017-Oct-15 02:30N 39°53' W 075°09'1 2.7
2017-Oct-15 02:01N 39°54' W 075°08'0 0.0
2017-Oct-15 01:30N 39°54' W 075°08'0 0.0
2017-Oct-15 01:00N 39°54' W 075°08'0 0.9
2017-Oct-15 00:30N 39°54' W 075°08'1 3.0
2017-Oct-15 00:00N 39°53' W 075°09'1 2.7
2017-Oct-14 23:31N 39°53' W 075°11'0 0.0
2017-Oct-14 23:01N 39°53' W 075°11'0 0.0
2017-Oct-14 22:31N 39°53' W 075°11'0 0.0
2017-Oct-14 22:00N 39°53' W 075°11'0 0.0
2017-Oct-14 21:31N 39°53' W 075°11'0 0.0
2017-Oct-14 21:00N 39°53' W 075°11'0 0.0
2017-Oct-14 20:30N 39°53' W 075°11'0 0.0
2017-Oct-14 20:00N 39°53' W 075°11'0 0.0
2017-Oct-14 19:30N 39°53' W 075°11'0 0.0
2017-Oct-14 19:00N 39°53' W 075°11'0 0.0
2017-Oct-14 18:30N 39°53' W 075°11'0 0.0
2017-Oct-14 18:00N 39°53' W 075°11'0 0.0
2017-Oct-14 17:30N 39°53' W 075°11'0 0.0
2017-Oct-14 17:00N 39°53' W 075°11'0 0.0
2017-Oct-14 16:30N 39°53' W 075°11'0 0.0
2017-Oct-14 16:01N 39°53' W 075°11'2 4.6
2017-Oct-14 15:30N 39°52' W 075°13'4 8.1
2017-Oct-14 15:00N 39°51' W 075°18'2 3.2
2017-Oct-14 14:30N 39°51' W 075°20'1 1.1
2017-Oct-14 14:00N 39°51' W 075°21'2 3.6
2017-Oct-14 13:30N 39°49' W 075°23'2 4.6
2017-Oct-14 13:00N 39°51' W 075°20'0 0.0
2017-Oct-14 12:30N 39°51' W 075°20'0 0.0
2017-Oct-14 12:00N 39°51' W 075°20'0 0.0
2017-Oct-14 11:30N 39°51' W 075°20'0 0.0
2017-Oct-14 11:00N 39°51' W 075°20'0 0.0
2017-Oct-14 10:30N 39°51' W 075°20'0 0.0
2017-Oct-14 10:00N 39°51' W 075°20'0 0.0
2017-Oct-14 09:30N 39°51' W 075°20'0 0.0
2017-Oct-14 09:01N 39°51' W 075°20'0 0.0
2017-Oct-14 08:30N 39°51' W 075°20'0 0.0
2017-Oct-14 08:01N 39°51' W 075°20'0 0.0
2017-Oct-14 07:30N 39°51' W 075°20'0 0.0
2017-Oct-14 07:00N 39°51' W 075°20'0 0.0
2017-Oct-14 06:30N 39°51' W 075°20'0 0.0
2017-Oct-14 06:00N 39°51' W 075°20'0 0.0
2017-Oct-14 05:30N 39°51' W 075°20'0 0.0
2017-Oct-14 05:00N 39°51' W 075°20'0 0.0
2017-Oct-14 04:30N 39°51' W 075°20'611.0
2017-Oct-14 04:00N 39°52' W 075°13'0 0.5
2017-Oct-14 03:30N 39°52' W 075°13'0 0.0
2017-Oct-14 02:31N 39°52' W 075°13'0 0.4
2017-Oct-14 02:30N 39°52' W 075°13'0 0.2
2017-Oct-14 02:00N 39°52' W 075°13'2 3.1
2017-Oct-14 01:28N 39°51' W 075°15'0 0.3
2017-Oct-14 01:01N 39°51' W 075°15'4 7.3
2017-Oct-14 00:30N 39°53' W 075°11'0 0.5
2017-Oct-14 00:00N 39°53' W 075°11'0 0.0
2017-Oct-13 23:30N 39°53' W 075°11'0 0.0
2017-Oct-13 23:00N 39°53' W 075°11'0 0.0
2017-Oct-13 22:30N 39°53' W 075°11'0 0.0
2017-Oct-13 22:01N 39°53' W 075°11'0 0.0
2017-Oct-13 21:30N 39°53' W 075°11'0 0.0
2017-Oct-13 21:01N 39°53' W 075°11'2 4.2
2017-Oct-13 20:30N 39°54' W 075°08'0 0.4
2017-Oct-13 20:00N 39°54' W 075°08'0 0.6
2017-Oct-13 19:30N 39°54' W 075°08'0 0.0
2017-Oct-13 19:00N 39°54' W 075°08'0 0.0
2017-Oct-13 18:30N 39°54' W 075°08'0 0.0
2017-Oct-13 18:00N 39°54' W 075°08'0 0.0
2017-Oct-13 17:30N 39°54' W 075°08'0 0.0
2017-Oct-13 17:00N 39°54' W 075°08'0 0.0
2017-Oct-13 16:30N 39°54' W 075°08'0 0.0
2017-Oct-13 16:00N 39°54' W 075°08'0 0.0
2017-Oct-13 15:31N 39°54' W 075°08'0 0.0
2017-Oct-13 15:01N 39°54' W 075°08'0 0.0
2017-Oct-13 14:30N 39°54' W 075°08'1 2.4
2017-Oct-13 14:00N 39°55' W 075°08'4 7.7
2017-Oct-13 13:30N 39°59' W 075°06'0 0.2
2017-Oct-13 13:00N 39°58' W 075°06'2 3.6
2017-Oct-13 12:31N 39°58' W 075°08'3 6.6
2017-Oct-13 12:00N 39°54' W 075°08'1 1.2
2017-Oct-13 11:30N 39°54' W 075°08'0 0.0
2017-Oct-13 11:00N 39°54' W 075°08'0 0.0
2017-Oct-13 10:30N 39°54' W 075°08'0 0.0
2017-Oct-13 10:00N 39°54' W 075°08'0 0.0
2017-Oct-13 09:31N 39°54' W 075°08'0 0.0
2017-Oct-13 09:01N 39°54' W 075°08'0 0.0
2017-Oct-13 08:30N 39°54' W 075°08'0 0.0
2017-Oct-13 08:00N 39°54' W 075°08'0 0.0
2017-Oct-13 07:30N 39°54' W 075°08'0 0.0
2017-Oct-13 07:00N 39°54' W 075°08'0 0.0
2017-Oct-13 06:30N 39°54' W 075°08'0 0.0
2017-Oct-13 06:00N 39°54' W 075°08'0 0.0
2017-Oct-13 05:31N 39°54' W 075°08'0 0.0
2017-Oct-13 05:00N 39°54' W 075°08'0 0.0
2017-Oct-13 04:30N 39°54' W 075°08'0 0.0
2017-Oct-13 04:00N 39°54' W 075°08'1 2.1
2017-Oct-13 03:30N 39°53' W 075°09'1 1.3
2017-Oct-13 03:00N 39°53' W 075°10'1 1.9
2017-Oct-13 02:30N 39°53' W 075°09'1 2.0
2017-Oct-13 02:00N 39°54' W 075°08'1 1.2
2017-Oct-13 01:30N 39°53' W 075°08'2 3.7
2017-Oct-13 01:00N 39°53' W 075°11'2 3.9
2017-Oct-13 00:30N 39°54' W 075°08'2 3.9
2017-Oct-13 00:00N 39°53' W 075°11'0 0.0
2017-Oct-12 23:30N 39°53' W 075°11'2 3.1
2017-Oct-12 23:00N 39°52' W 075°12'510.0
2017-Oct-12 22:30N 39°51' W 075°19'510.2
2017-Oct-12 22:00N 39°49' W 075°24'510.0
2017-Oct-12 21:30N 39°45' W 075°29'3 5.1
2017-Oct-12 21:00N 39°43' W 075°31'1 1.8
2017-Oct-12 20:30N 39°44' W 075°30'4 7.7
2017-Oct-12 20:00N 39°47' W 075°28'4 7.5
2017-Oct-12 19:31N 39°49' W 075°24'4 7.6
2017-Oct-12 19:00N 39°51' W 075°19'4 8.2
2017-Oct-12 18:30N 39°51' W 075°14'3 5.5
2017-Oct-12 18:01N 39°54' W 075°12'1 2.4
2017-Oct-12 17:30N 39°53' W 075°11'0 0.0
2017-Oct-12 17:00N 39°53' W 075°11'0 0.0
2017-Oct-12 16:31N 39°53' W 075°11'0 0.0
2017-Oct-12 16:00N 39°53' W 075°11'0 0.0
2017-Oct-12 15:30N 39°53' W 075°11'0 0.0
2017-Oct-12 15:00N 39°53' W 075°11'0 0.0
2017-Oct-12 14:30N 39°53' W 075°11'0 0.0
2017-Oct-12 14:00N 39°53' W 075°11'0 0.0
2017-Oct-12 13:30N 39°53' W 075°11'0 0.0
2017-Oct-12 13:00N 39°53' W 075°11'0 0.0
2017-Oct-12 12:31N 39°53' W 075°11'0 0.0
2017-Oct-12 12:00N 39°53' W 075°11'0 0.0
2017-Oct-12 11:31N 39°53' W 075°11'0 0.0
2017-Oct-12 11:00N 39°53' W 075°11'0 0.0
2017-Oct-12 10:30N 39°53' W 075°11'0 0.0
2017-Oct-12 10:00N 39°53' W 075°11'0 0.0
2017-Oct-12 09:30N 39°53' W 075°11'2 3.7
2017-Oct-12 09:00N 39°54' W 075°08'2 5.0
2017-Oct-12 08:30N 39°56' W 075°08'0 0.4
2017-Oct-12 08:00N 39°56' W 075°08'0 0.7
2017-Oct-12 07:31N 39°56' W 075°08'0 0.0
2017-Oct-12 07:00N 39°56' W 075°08'0 0.0
2017-Oct-12 06:31N 39°56' W 075°08'0 0.0
2017-Oct-12 06:00N 39°56' W 075°08'0 0.0
2017-Oct-12 05:30N 39°56' W 075°08'0 0.0
2017-Oct-12 05:00N 39°56' W 075°08'0 0.0
2017-Oct-12 04:31N 39°56' W 075°08'0 0.0
2017-Oct-12 04:01N 39°56' W 075°08'0 0.0
2017-Oct-12 03:30N 39°56' W 075°08'0 0.5
2017-Oct-12 03:01N 39°56' W 075°08'2 4.4
2017-Oct-12 02:31N 39°58' W 075°07'0 0.1
2017-Oct-12 02:01N 39°58' W 075°07'1 2.5
2017-Oct-12 01:31N 39°57' W 075°08'3 6.6
2017-Oct-12 01:01N 39°54' W 075°08'0 0.4
2017-Oct-12 00:30N 39°54' W 075°08'0 0.0
2017-Oct-12 00:01N 39°54' W 075°08'2 3.9
2017-Oct-11 23:30N 39°53' W 075°10'0 0.1
2017-Oct-11 23:00N 39°53' W 075°10'0 0.0
2017-Oct-11 22:30N 39°53' W 075°10'0 0.5
2017-Oct-11 22:01N 39°53' W 075°10'1 2.3
2017-Oct-11 21:30N 39°53' W 075°11'1 2.1
2017-Oct-11 21:00N 39°53' W 075°10'0 0.9
2017-Oct-11 20:30N 39°53' W 075°11'0 0.0
2017-Oct-11 20:01N 39°53' W 075°11'0 0.0
2017-Oct-11 19:30N 39°53' W 075°11'0 0.0
2017-Oct-11 19:01N 39°53' W 075°11'0 0.0
2017-Oct-11 18:30N 39°53' W 075°11'0 0.0
2017-Oct-11 18:00N 39°53' W 075°11'0 0.0
2017-Oct-11 17:30N 39°53' W 075°11'0 0.9
2017-Oct-11 17:00N 39°54' W 075°11'0 0.0
2017-Oct-11 00:00N 39°53' W 075°11'0 0.0
2017-Oct-10 23:30N 39°53' W 075°11'0 0.0
2017-Oct-10 23:00N 39°53' W 075°11'0 0.0
2017-Oct-10 22:30N 39°53' W 075°11'0 0.0
2017-Oct-10 22:01N 39°53' W 075°11'0 0.0
2017-Oct-10 21:30N 39°53' W 075°11'0 0.0
2017-Oct-10 21:01N 39°53' W 075°11'0 0.0
2017-Oct-10 20:30N 39°53' W 075°11'0 0.0
2017-Oct-10 20:00N 39°53' W 075°11'0 0.0
2017-Oct-10 19:31N 39°53' W 075°11'0 0.0
2017-Oct-10 19:00N 39°53' W 075°11'0 0.0
2017-Oct-10 18:30N 39°53' W 075°11'0 0.0
2017-Oct-10 18:00N 39°53' W 075°11'0 0.0
2017-Oct-10 17:30N 39°53' W 075°11'0 0.0
2017-Oct-10 17:00N 39°53' W 075°11'0 0.0
2017-Oct-10 16:31N 39°53' W 075°11'0 0.0
2017-Oct-10 16:00N 39°53' W 075°11'0 0.0
2017-Oct-10 15:30N 39°53' W 075°11'0 0.5
2017-Oct-10 15:00N 39°53' W 075°10'1 1.0
2017-Oct-10 14:00N 39°53' W 075°12'0 0.0
2017-Oct-10 13:30N 39°53' W 075°12'0 0.0
2017-Oct-10 13:00N 39°53' W 075°12'0 0.0
2017-Oct-10 12:30N 39°53' W 075°12'0 0.0
2017-Oct-10 12:00N 39°53' W 075°12'1 1.6
2017-Oct-10 11:30N 39°53' W 075°11'0 0.0
2017-Oct-10 11:00N 39°53' W 075°11'0 0.0
2017-Oct-10 10:30N 39°53' W 075°11'0 0.0
2017-Oct-10 10:00N 39°53' W 075°11'0 0.0
2017-Oct-10 09:31N 39°53' W 075°11'0 0.0
2017-Oct-10 09:00N 39°53' W 075°11'0 0.0
2017-Oct-10 08:30N 39°53' W 075°11'2 4.3
2017-Oct-10 08:00N 39°54' W 075°08'2 4.1
2017-Oct-10 07:30N 39°56' W 075°08'0 0.5
2017-Oct-10 07:01N 39°56' W 075°08'2 3.1
2017-Oct-10 06:31N 39°54' W 075°08'2 3.7
2017-Oct-10 06:01N 39°56' W 075°08'0 0.0
2017-Oct-10 05:31N 39°56' W 075°08'0 0.0
2017-Oct-10 05:01N 39°56' W 075°08'0 0.0
2017-Oct-10 04:31N 39°56' W 075°08'0 0.0
2017-Oct-10 04:01N 39°56' W 075°08'0 0.0
2017-Oct-10 03:31N 39°56' W 075°08'0 0.0
2017-Oct-10 03:01N 39°56' W 075°08'0 0.0
2017-Oct-10 02:31N 39°56' W 075°08'0 0.0
2017-Oct-10 02:00N 39°56' W 075°08'0 0.0
2017-Oct-10 01:30N 39°56' W 075°08'1 1.0
2017-Oct-10 01:00N 39°56' W 075°08'1 2.9
2017-Oct-10 00:30N 39°54' W 075°08'0 0.1
2017-Oct-10 00:00N 39°54' W 075°08'0 0.3
2017-Oct-09 23:30N 39°54' W 075°08'0 0.9
2017-Oct-09 23:00N 39°54' W 075°08'2 3.9
2017-Oct-09 22:30N 39°53' W 075°10'2 3.9
2017-Oct-09 22:00N 39°54' W 075°08'1 2.6
2017-Oct-09 21:30N 39°53' W 075°09'1 2.8
2017-Oct-09 21:00N 39°53' W 075°11'0 0.0
2017-Oct-09 20:30N 39°53' W 075°11'0 0.0
2017-Oct-09 20:00N 39°53' W 075°11'0 0.0
2017-Oct-09 19:30N 39°53' W 075°11'0 0.0
2017-Oct-09 19:00N 39°53' W 075°11'0 0.0
2017-Oct-09 18:30N 39°53' W 075°11'0 0.0
2017-Oct-09 18:00N 39°53' W 075°11'0 0.0
2017-Oct-09 17:30N 39°53' W 075°11'1 1.6
2017-Oct-09 17:00N 39°54' W 075°12'0 0.0
2017-Oct-09 16:31N 39°54' W 075°12'1 1.4
2017-Oct-09 16:00N 39°54' W 075°12'0 0.7
2017-Oct-09 15:30N 39°54' W 075°12'1 1.9
2017-Oct-09 15:01N 39°53' W 075°12'1 2.4
2017-Oct-09 14:31N 39°53' W 075°11'0 0.0
2017-Oct-09 14:00N 39°53' W 075°11'1 1.2
2017-Oct-09 13:30N 39°53' W 075°10'3 5.3
2017-Oct-09 13:01N 39°55' W 075°08'0 0.1
2017-Oct-09 12:31N 39°55' W 075°08'1 1.2
2017-Oct-09 12:00N 39°55' W 075°08'1 1.1
2017-Oct-09 11:30N 39°54' W 075°08'1 1.3
2017-Oct-09 11:00N 39°53' W 075°08'1 1.1
2017-Oct-09 10:30N 39°53' W 075°09'1 1.7
2017-Oct-09 10:00N 39°54' W 075°08'0 0.3
2017-Oct-09 09:31N 39°54' W 075°08'0 0.1
2017-Oct-09 09:01N 39°54' W 075°08'0 0.0
2017-Oct-09 08:30N 39°54' W 075°08'0 0.0
2017-Oct-09 08:00N 39°54' W 075°08'0 0.0
2017-Oct-09 07:30N 39°54' W 075°08'0 0.0
2017-Oct-09 07:00N 39°54' W 075°08'0 0.0
2017-Oct-09 06:30N 39°54' W 075°08'0 0.0
2017-Oct-09 06:00N 39°54' W 075°08'0 0.0
2017-Oct-09 05:30N 39°54' W 075°08'0 0.0
2017-Oct-09 05:00N 39°54' W 075°08'0 0.0
2017-Oct-09 04:31N 39°54' W 075°08'0 0.0
2017-Oct-09 04:00N 39°54' W 075°08'0 0.0
2017-Oct-09 03:30N 39°54' W 075°08'0 0.0
2017-Oct-09 03:00N 39°54' W 075°08'0 0.0
2017-Oct-09 02:30N 39°54' W 075°08'0 0.0
2017-Oct-09 02:01N 39°54' W 075°08'0 0.0
2017-Oct-09 01:31N 39°54' W 075°08'0 0.0
2017-Oct-09 01:00N 39°54' W 075°08'0 0.0
2017-Oct-09 00:30N 39°54' W 075°08'0 0.0
2017-Oct-09 00:00N 39°54' W 075°08'0 0.1
2017-Oct-08 23:30N 39°54' W 075°08'0 0.2
2017-Oct-08 23:00N 39°54' W 075°08'0 0.2
2017-Oct-08 22:31N 39°54' W 075°08'0 0.0
2017-Oct-08 22:01N 39°54' W 075°08'0 0.0
2017-Oct-08 21:31N 39°54' W 075°08'0 0.0
2017-Oct-08 21:00N 39°54' W 075°08'0 0.0
2017-Oct-08 20:31N 39°54' W 075°08'0 0.5
2017-Oct-08 20:00N 39°54' W 075°08'4 7.9
2017-Oct-08 19:30N 39°52' W 075°13'0 0.1
2017-Oct-08 19:01N 39°52' W 075°13'2 3.9
2017-Oct-08 18:31N 39°53' W 075°11'2 4.0
2017-Oct-08 18:00N 39°54' W 075°08'0 0.0
2017-Oct-08 17:30N 39°54' W 075°08'0 0.0
2017-Oct-08 17:00N 39°54' W 075°08'0 0.0
2017-Oct-08 16:31N 39°54' W 075°08'0 0.0
2017-Oct-08 16:01N 39°54' W 075°08'0 0.2
2017-Oct-08 15:31N 39°54' W 075°08'0 0.9
2017-Oct-08 15:00N 39°53' W 075°08'2 4.2
2017-Oct-08 14:31N 39°53' W 075°11'0 0.9
2017-Oct-08 14:01N 39°53' W 075°11'0 0.0
2017-Oct-08 13:30N 39°53' W 075°11'0 0.0
2017-Oct-08 13:01N 39°53' W 075°11'0 0.0
2017-Oct-08 12:30N 39°53' W 075°11'0 0.0
2017-Oct-08 12:00N 39°53' W 075°11'2 4.4
2017-Oct-08 11:30N 39°52' W 075°13'5 9.2
2017-Oct-08 11:00N 39°51' W 075°19'5 9.8
2017-Oct-08 10:30N 39°49' W 075°24'510.2
2017-Oct-08 10:00N 39°45' W 075°29'510.9
2017-Oct-08 09:30N 39°40' W 075°32'5 9.8
2017-Oct-08 09:00N 39°35' W 075°34'1 2.6
2017-Oct-08 08:30N 39°35' W 075°35'0 0.0
2017-Oct-08 08:00N 39°35' W 075°35'0 0.3
2017-Oct-08 07:30N 39°35' W 075°35'2 4.3
2017-Oct-08 07:00N 39°34' W 075°33'2 3.7
2017-Oct-08 06:30N 39°36' W 075°34'1 2.1
2017-Oct-08 06:00N 39°35' W 075°35'0 0.8
2017-Oct-08 05:30N 39°35' W 075°35'0 0.0
2017-Oct-08 05:00N 39°35' W 075°35'2 3.9
2017-Oct-08 04:30N 39°34' W 075°33'2 4.5
2017-Oct-08 04:00N 39°35' W 075°36'0 0.1
2017-Oct-08 03:30N 39°35' W 075°36'0 0.6
2017-Oct-08 03:00N 39°35' W 075°35'0 0.0
2017-Oct-08 02:30N 39°35' W 075°35'0 0.0
2017-Oct-08 02:00N 39°35' W 075°35'0 0.0
2017-Oct-08 01:30N 39°35' W 075°35'0 0.0
2017-Oct-08 01:00N 39°35' W 075°35'0 0.0
2017-Oct-08 00:30N 39°35' W 075°35'0 0.0
2017-Oct-08 00:00N 39°35' W 075°35'0 0.0
2017-Oct-07 23:30N 39°35' W 075°35'0 0.0
2017-Oct-07 23:00N 39°35' W 075°35'0 0.0
2017-Oct-07 22:30N 39°35' W 075°35'0 0.0
2017-Oct-07 22:00N 39°35' W 075°35'0 0.0
2017-Oct-07 21:30N 39°35' W 075°35'0 0.0
2017-Oct-07 21:00N 39°35' W 075°35'0 0.0
2017-Oct-07 20:30N 39°35' W 075°35'0 0.0
2017-Oct-07 20:00N 39°35' W 075°35'0 0.0
2017-Oct-07 19:30N 39°35' W 075°35'0 0.0
2017-Oct-07 19:00N 39°35' W 075°35'2 4.1
2017-Oct-07 18:30N 39°34' W 075°33'1 1.7
2017-Oct-07 18:00N 39°34' W 075°34'1 2.6
2017-Oct-07 17:30N 39°35' W 075°35'0 0.1
2017-Oct-07 17:00N 39°35' W 075°35'0 0.1
2017-Oct-07 16:30N 39°35' W 075°36'1 2.7
2017-Oct-07 16:00N 39°36' W 075°34'4 7.7
2017-Oct-07 15:30N 39°39' W 075°33'4 8.9
2017-Oct-07 15:00N 39°43' W 075°30'510.9
2017-Oct-07 14:30N 39°48' W 075°26'5 9.3
2017-Oct-07 14:00N 39°50' W 075°21'1 1.4
2017-Oct-07 13:30N 39°51' W 075°21'0 0.0
2017-Oct-07 13:00N 39°51' W 075°21'0 0.0
2017-Oct-07 12:30N 39°51' W 075°21'0 0.0
2017-Oct-07 12:01N 39°51' W 075°21'0 0.0
2017-Oct-07 11:31N 39°51' W 075°21'0 0.0
2017-Oct-07 11:01N 39°51' W 075°21'0 0.0
2017-Oct-07 10:31N 39°51' W 075°21'3 6.7
2017-Oct-07 10:01N 39°51' W 075°16'0 0.3
2017-Oct-07 09:30N 39°51' W 075°16'0 0.0
2017-Oct-07 09:01N 39°51' W 075°16'0 0.2
2017-Oct-07 08:31N 39°51' W 075°16'1 2.4
2017-Oct-07 08:01N 39°51' W 075°18'3 6.8
2017-Oct-07 07:31N 39°52' W 075°13'4 8.6
2017-Oct-07 07:01N 39°53' W 075°08'1 1.4
2017-Oct-07 06:31N 39°54' W 075°08'0 0.5
2017-Oct-07 06:01N 39°54' W 075°08'2 3.9
2017-Oct-07 05:30N 39°53' W 075°11'2 4.6
2017-Oct-07 05:01N 39°52' W 075°13'0 0.0
2017-Oct-07 04:31N 39°52' W 075°13'0 0.0
2017-Oct-07 04:00N 39°52' W 075°13'0 0.0
2017-Oct-07 03:30N 39°52' W 075°13'0 0.4
2017-Oct-07 03:01N 39°52' W 075°13'1 2.3
2017-Oct-07 02:31N 39°51' W 075°14'2 4.7
2017-Oct-07 02:00N 39°53' W 075°12'1 2.4
2017-Oct-07 01:31N 39°53' W 075°11'1 2.4
2017-Oct-07 01:01N 39°53' W 075°09'1 2.9
2017-Oct-07 00:30N 39°54' W 075°08'2 4.0
2017-Oct-07 00:01N 39°53' W 075°10'1 1.1
2017-Oct-06 23:30N 39°53' W 075°11'2 4.2
2017-Oct-06 23:00N 39°54' W 075°08'  

Dump ship's entire track history